Time;durP1;ratioP1;P1;durP2;ratioP2;P2;SDS_P1;SDS_P2;PMS_P1;PMS_P2;Temp;Humidity;BMP_temperature;BMP_pressure;BME280_temperature;BME280_humidity;BME280_pressure;Samples;Min_cycle;Max_cycle;Signal;HPM_P1;HPM_P2
2021/06/13 00:02:12;;;;;;;;;;;19.30;65.50;;;;;;4377416;32;20007;-82
2021/06/13 00:04:39;;;;;;;;;;;19.30;65.40;;;;;;4390834;32;20404;-83
2021/06/13 00:07:06;;;;;;;;;;;19.30;65.40;;;;;;4390837;32;22553;-82
2021/06/13 00:09:33;;;;;;;;;;;19.30;65.30;;;;;;4390155;32;20011;-82
2021/06/13 00:12:00;;;;;;;;;;;19.30;65.30;;;;;;4390247;32;24003;-82
2021/06/13 00:14:27;;;;;;;;;;;19.20;65.20;;;;;;4391028;32;22353;-82
2021/06/13 00:16:54;;;;;;;;;;;19.20;65.20;;;;;;4391478;32;20005;-82
2021/06/13 00:19:22;;;;;;;;;;;19.20;65.20;;;;;;4391595;32;20018;-82
2021/06/13 00:21:49;;;;;;;;;;;19.20;65.30;;;;;;4390075;32;20537;-81
2021/06/13 00:24:16;;;;;;;;;;;19.20;65.30;;;;;;4390775;32;20263;-82
2021/06/13 00:26:43;;;;;;;;;;;19.10;65.30;;;;;;4391363;32;20004;-82
2021/06/13 00:29:10;;;;;;;;;;;19.10;65.30;;;;;;4391133;32;20000;-81
2021/06/13 00:31:37;;;;;;;;;;;19.10;65.40;;;;;;4391688;32;20071;-81
2021/06/13 00:34:05;;;;;;;;;;;19.10;65.40;;;;;;4390507;32;22199;-81
2021/06/13 00:36:32;;;;;;;;;;;19.10;65.50;;;;;;4377021;32;20647;-81
2021/06/13 00:38:59;;;;;;;;;;;19.10;65.50;;;;;;4390916;32;22160;-82
2021/06/13 00:41:26;;;;;;;;;;;19.00;65.50;;;;;;4390868;32;22220;-82
2021/06/13 00:43:53;;;;;;;;;;;19.00;65.50;;;;;;4390240;32;20406;-81
2021/06/13 00:46:20;;;;;;;;;;;19.00;65.60;;;;;;4377355;32;20012;-82
2021/06/13 00:48:47;;;;;;;;;;;19.00;65.60;;;;;;4377466;32;20046;-82
2021/06/13 00:51:15;;;;;;;;;;;19.00;65.70;;;;;;4377513;32;20009;-82
2021/06/13 00:53:42;;;;;;;;;;;18.90;65.80;;;;;;4391507;32;19996;-82
2021/06/13 00:56:09;;;;;;;;;;;18.90;65.80;;;;;;4390871;32;20016;-82
2021/06/13 00:58:36;;;;;;;;;;;18.90;65.90;;;;;;4390156;32;20018;-82
2021/06/13 01:01:04;;;;;;;;;;;18.90;65.80;;;;;;4376862;32;20008;-82
2021/06/13 01:03:31;;;;;;;;;;;18.90;65.80;;;;;;4390511;32;20788;-82
2021/06/13 01:05:58;;;;;;;;;;;18.90;65.80;;;;;;4390689;32;20082;-82
2021/06/13 01:09:00;;;;;;;;;;;18.90;65.80;;;;;;4391397;32;20022;-82
2021/06/13 01:11:39;;;;;;;;;;;18.80;65.80;;;;;;4344067;33;20081;-82
2021/06/13 01:14:25;;;;;;;;;;;18.80;66.00;;;;;;4371992;32;24545;-82
2021/06/13 01:17:00;;;;;;;;;;;18.80;66.00;;;;;;4391271;32;20016;-82
2021/06/13 01:19:28;;;;;;;;;;;18.80;66.00;;;;;;4393594;32;20068;-82
2021/06/13 01:22:08;;;;;;;;;;;18.70;66.00;;;;;;4393881;32;20012;-82
2021/06/13 01:24:38;;;;;;;;;;;18.70;66.00;;;;;;4379588;32;22022;-82
2021/06/13 01:27:24;;;;;;;;;;;18.70;66.00;;;;;;4394170;32;20346;-82
2021/06/13 01:29:52;;;;;;;;;;;18.70;66.10;;;;;;4393841;32;20023;-83
2021/06/13 01:32:23;;;;;;;;;;;18.70;66.10;;;;;;4393514;32;24763;-82
2021/06/13 01:34:54;;;;;;;;;;;18.70;66.10;;;;;;4394036;32;20000;-83
2021/06/13 01:37:22;;;;;;;;;;;18.60;66.10;;;;;;4393047;32;20045;-83
2021/06/13 01:39:52;;;;;;;;;;;18.60;66.10;;;;;;4379280;32;26529;-83
2021/06/13 01:42:19;;;;;;;;;;;18.50;66.20;;;;;;4393873;32;20022;-83
2021/06/13 01:44:49;;;;;;;;;;;18.50;66.30;;;;;;4393642;32;20000;-83
2021/06/13 01:47:17;;;;;;;;;;;18.50;66.40;;;;;;4391791;32;20453;-83
2021/06/13 01:49:44;;;;;;;;;;;18.50;66.40;;;;;;4393631;32;20027;-83
2021/06/13 01:52:12;;;;;;;;;;;18.50;66.40;;;;;;4379728;32;20000;-83
2021/06/13 01:54:40;;;;;;;;;;;18.50;66.40;;;;;;4392107;32;20009;-83
2021/06/13 01:57:08;;;;;;;;;;;18.50;66.40;;;;;;4393355;32;20008;-83
2021/06/13 01:59:39;;;;;;;;;;;18.50;66.40;;;;;;4393366;32;20008;-83
2021/06/13 02:02:07;;;;;;;;;;;18.50;66.50;;;;;;4379386;32;20052;-83
2021/06/13 02:04:37;;;;;;;;;;;18.40;66.50;;;;;;4393321;32;20004;-82
2021/06/13 02:07:05;;;;;;;;;;;18.40;66.60;;;;;;4392880;32;20016;-83
2021/06/13 02:09:33;;;;;;;;;;;18.40;66.50;;;;;;4391857;32;20266;-83
2021/06/13 02:12:01;;;;;;;;;;;18.30;66.40;;;;;;4391882;32;20278;-83
2021/06/13 02:14:30;;;;;;;;;;;18.20;66.40;;;;;;4393067;32;20471;-83
2021/06/13 02:16:59;;;;;;;;;;;18.20;66.40;;;;;;4379677;32;20047;-82
2021/06/13 02:19:28;;;;;;;;;;;18.20;66.40;;;;;;4392950;32;20022;-83
2021/06/13 02:21:56;;;;;;;;;;;18.20;66.50;;;;;;4392666;32;20019;-83
2021/06/13 02:24:26;;;;;;;;;;;18.10;66.50;;;;;;4392796;32;20063;-83
2021/06/13 02:26:54;;;;;;;;;;;18.10;66.50;;;;;;4378943;32;20010;-83
2021/06/13 02:29:22;;;;;;;;;;;18.10;66.70;;;;;;4392845;32;20072;-83
2021/06/13 02:31:49;;;;;;;;;;;18.10;66.80;;;;;;4378603;32;26765;-83
2021/06/13 02:34:21;;;;;;;;;;;18.00;66.80;;;;;;4391530;32;20020;-83
2021/06/13 02:36:50;;;;;;;;;;;18.00;66.90;;;;;;4392861;32;20050;-83
2021/06/13 02:39:17;;;;;;;;;;;18.00;67.00;;;;;;4391939;32;26770;-83
2021/06/13 02:41:45;;;;;;;;;;;18.00;67.00;;;;;;4392701;32;20393;-83
2021/06/13 02:44:12;;;;;;;;;;;18.00;67.00;;;;;;4391266;32;20032;-84
2021/06/13 02:46:39;;;;;;;;;;;18.00;67.20;;;;;;4378377;32;23698;-83
2021/06/13 02:49:08;;;;;;;;;;;18.00;67.20;;;;;;4391688;32;20050;-84
2021/06/13 02:51:38;;;;;;;;;;;18.00;67.20;;;;;;4392181;32;20020;-84
2021/06/13 02:54:07;;;;;;;;;;;17.90;67.20;;;;;;4392377;32;21537;-84
2021/06/13 02:56:39;;;;;;;;;;;17.90;67.20;;;;;;4392523;32;20050;-84
2021/06/13 02:59:10;;;;;;;;;;;17.90;67.20;;;;;;4392754;32;20015;-84
2021/06/13 03:01:41;;;;;;;;;;;17.90;67.30;;;;;;4378933;32;20011;-84
2021/06/13 03:04:09;;;;;;;;;;;17.90;67.40;;;;;;4392441;32;20427;-84
2021/06/13 03:06:37;;;;;;;;;;;17.90;67.40;;;;;;4378053;32;22812;-84
2021/06/13 03:09:04;;;;;;;;;;;17.90;67.40;;;;;;4392451;32;20004;-84
2021/06/13 03:11:31;;;;;;;;;;;17.80;67.30;;;;;;4390783;32;20019;-84
2021/06/13 03:13:59;;;;;;;;;;;17.80;67.40;;;;;;4378020;32;21742;-84
2021/06/13 03:16:26;;;;;;;;;;;17.80;67.40;;;;;;4392120;32;23390;-84
2021/06/13 03:18:54;;;;;;;;;;;17.80;67.50;;;;;;4378454;32;20018;-84
2021/06/13 03:21:21;;;;;;;;;;;17.80;67.40;;;;;;4392206;32;20019;-84
2021/06/13 03:23:49;;;;;;;;;;;17.80;67.50;;;;;;4391562;32;24788;-84
2021/06/13 03:26:16;;;;;;;;;;;17.80;67.50;;;;;;4391193;32;20004;-84
2021/06/13 03:28:44;;;;;;;;;;;17.70;67.50;;;;;;4391257;32;20428;-84
2021/06/13 03:31:12;;;;;;;;;;;17.70;67.40;;;;;;4378112;32;20244;-84
2021/06/13 03:33:39;;;;;;;;;;;17.70;67.50;;;;;;4390344;32;21754;-84
2021/06/13 03:36:07;;;;;;;;;;;17.70;67.50;;;;;;4390840;32;20016;-85
2021/06/13 03:38:35;;;;;;;;;;;17.70;67.50;;;;;;4391668;32;20015;-84
2021/06/13 03:41:02;;;;;;;;;;;17.70;67.60;;;;;;4390006;32;20012;-84
2021/06/13 03:43:30;;;;;;;;;;;17.70;67.60;;;;;;4390215;32;23623;-84
2021/06/13 03:45:58;;;;;;;;;;;17.60;67.50;;;;;;4390820;32;20018;-84
2021/06/13 03:48:25;;;;;;;;;;;17.60;67.60;;;;;;4378249;32;19996;-83
2021/06/13 03:50:53;;;;;;;;;;;17.60;67.60;;;;;;4390208;32;20008;-84
2021/06/13 03:53:21;;;;;;;;;;;17.60;67.60;;;;;;4390554;32;20075;-84
2021/06/13 03:55:49;;;;;;;;;;;17.60;67.60;;;;;;4378261;32;20004;-85
2021/06/13 03:58:16;;;;;;;;;;;17.60;67.60;;;;;;4390396;32;20841;-85
2021/06/13 04:00:44;;;;;;;;;;;17.50;67.60;;;;;;4390489;32;20019;-85
2021/06/13 04:03:14;;;;;;;;;;;17.50;67.70;;;;;;4377482;32;20016;-85
2021/06/13 04:05:42;;;;;;;;;;;17.50;67.70;;;;;;4377964;32;20004;-84
2021/06/13 04:08:11;;;;;;;;;;;17.50;67.70;;;;;;4391489;32;20014;-85
2021/06/13 04:10:39;;;;;;;;;;;17.50;67.80;;;;;;4390302;32;20409;-85
2021/06/13 04:13:07;;;;;;;;;;;17.50;67.90;;;;;;4391447;32;20824;-85
2021/06/13 04:15:34;;;;;;;;;;;17.40;67.90;;;;;;4391342;32;20026;-84
2021/06/13 04:18:01;;;;;;;;;;;17.40;67.90;;;;;;4390945;32;20008;-85
2021/06/13 04:20:29;;;;;;;;;;;17.40;68.00;;;;;;4390809;32;20018;-84
2021/06/13 04:22:56;;;;;;;;;;;17.40;67.90;;;;;;4377896;32;20011;-85
2021/06/13 04:25:23;;;;;;;;;;;17.30;67.80;;;;;;4391142;32;20018;-85
2021/06/13 04:27:53;;;;;;;;;;;17.30;67.90;;;;;;4391613;32;20046;-85
2021/06/13 04:30:20;;;;;;;;;;;17.30;67.90;;;;;;4390969;32;19996;-85
2021/06/13 04:32:49;;;;;;;;;;;17.30;68.00;;;;;;4377242;32;20000;-85
2021/06/13 04:35:16;;;;;;;;;;;17.30;68.00;;;;;;4389954;32;20042;-85
2021/06/13 04:37:43;;;;;;;;;;;17.30;68.10;;;;;;4390948;32;20008;-85
2021/06/13 04:40:10;;;;;;;;;;;17.20;68.10;;;;;;4377069;32;25492;-85
2021/06/13 04:42:37;;;;;;;;;;;17.20;68.20;;;;;;4391525;32;20009;-85
2021/06/13 04:45:08;;;;;;;;;;;17.20;68.20;;;;;;4390742;32;20020;-84
2021/06/13 04:47:36;;;;;;;;;;;17.20;68.40;;;;;;4389295;32;23801;-85
2021/06/13 04:50:05;;;;;;;;;;;17.10;68.40;;;;;;4377168;32;20015;-85
2021/06/13 04:52:32;;;;;;;;;;;17.20;68.60;;;;;;4389696;32;20012;-85
2021/06/13 04:55:18;;;;;;;;;;;17.10;68.60;;;;;;4390769;32;26141;-85
2021/06/13 04:57:49;;;;;;;;;;;17.10;68.80;;;;;;4390536;32;20050;-85
2021/06/13 05:00:17;;;;;;;;;;;17.00;69.00;;;;;;4377753;32;19996;-85
2021/06/13 05:02:45;;;;;;;;;;;17.00;69.10;;;;;;4390424;32;22008;-85
2021/06/13 05:05:14;;;;;;;;;;;17.10;69.20;;;;;;4389516;32;24441;-85
2021/06/13 05:07:41;;;;;;;;;;;17.00;69.10;;;;;;4390306;32;21328;-85
2021/06/13 05:10:09;;;;;;;;;;;17.00;69.20;;;;;;4390991;32;20015;-85
2021/06/13 05:12:46;;;;;;;;;;;17.00;69.40;;;;;;4376788;32;19999;-85
2021/06/13 05:15:14;;;;;;;;;;;17.00;69.50;;;;;;4391290;32;20012;-85
2021/06/13 05:17:41;;;;;;;;;;;17.00;69.60;;;;;;4376665;32;20082;-85
2021/06/13 05:20:09;;;;;;;;;;;17.00;69.70;;;;;;4376991;32;20015;-85
2021/06/13 05:22:49;;;;;;;;;;;17.00;69.80;;;;;;4390829;32;20012;-85
2021/06/13 05:25:16;;;;;;;;;;;17.00;69.80;;;;;;4390137;32;20013;-85
2021/06/13 05:27:43;;;;;;;;;;;17.00;69.90;;;;;;4376873;32;20000;-84
2021/06/13 05:30:11;;;;;;;;;;;17.00;70.00;;;;;;4389157;32;20083;-85
2021/06/13 05:32:41;;;;;;;;;;;17.00;70.10;;;;;;4391053;32;20079;-84
2021/06/13 05:35:08;;;;;;;;;;;17.00;70.10;;;;;;4389947;32;20076;-85
2021/06/13 05:37:35;;;;;;;;;;;17.00;70.30;;;;;;4389909;32;20016;-85
2021/06/13 05:40:05;;;;;;;;;;;17.00;70.30;;;;;;4390551;32;20681;-84
2021/06/13 05:42:32;;;;;;;;;;;17.00;71.20;;;;;;4389845;32;20023;-85
2021/06/13 05:44:59;;;;;;;;;;;17.00;70.50;;;;;;4389654;32;20023;-84
2021/06/13 05:47:26;;;;;;;;;;;17.00;70.70;;;;;;4390952;32;20016;-84
2021/06/13 05:49:53;;;;;;;;;;;17.00;70.80;;;;;;4389084;32;20470;-84
2021/06/13 05:52:20;;;;;;;;;;;17.00;70.90;;;;;;4390062;32;20113;-85
2021/06/13 05:54:48;;;;;;;;;;;17.10;71.20;;;;;;4391062;32;20314;-85
2021/06/13 05:57:15;;;;;;;;;;;17.10;71.30;;;;;;4377056;32;20021;-85
2021/06/13 05:59:42;;;;;;;;;;;17.10;71.40;;;;;;4389459;32;22939;-84
2021/06/13 06:02:09;;;;;;;;;;;17.10;71.40;;;;;;4390236;32;20024;-85
2021/06/13 06:04:36;;;;;;;;;;;17.10;71.50;;;;;;4391792;32;20008;-85
2021/06/13 06:07:03;;;;;;;;;;;17.10;71.60;;;;;;4378988;32;20325;-85
2021/06/13 06:09:30;;;;;;;;;;;17.10;71.60;;;;;;4379702;32;20373;-85
2021/06/13 06:11:57;;;;;;;;;;;17.10;71.70;;;;;;4379345;32;20007;-85
2021/06/13 06:14:25;;;;;;;;;;;17.10;71.80;;;;;;4392241;32;20054;-85
2021/06/13 06:16:52;;;;;;;;;;;17.10;71.90;;;;;;4393593;32;20016;-85
2021/06/13 06:19:19;;;;;;;;;;;17.10;72.10;;;;;;4393289;32;20049;-85
2021/06/13 06:21:46;;;;;;;;;;;17.10;72.20;;;;;;4379414;32;20014;-85
2021/06/13 06:24:13;;;;;;;;;;;17.10;72.30;;;;;;4378976;32;20004;-85
2021/06/13 06:26:40;;;;;;;;;;;17.10;72.40;;;;;;4379540;32;20192;-84
2021/06/13 06:29:07;;;;;;;;;;;17.10;72.50;;;;;;4392129;32;20009;-84
2021/06/13 06:31:35;;;;;;;;;;;17.10;72.50;;;;;;4393055;32;20078;-85
2021/06/13 06:34:02;;;;;;;;;;;17.10;72.70;;;;;;4391850;32;20159;-85
2021/06/13 06:36:29;;;;;;;;;;;17.20;72.90;;;;;;4392473;32;20015;-83
2021/06/13 06:38:56;;;;;;;;;;;17.10;72.90;;;;;;4392333;32;20004;-84
2021/06/13 06:41:23;;;;;;;;;;;17.10;72.90;;;;;;4393079;32;22638;-85
2021/06/13 06:43:51;;;;;;;;;;;17.10;72.90;;;;;;4391213;32;24524;-84
2021/06/13 06:46:18;;;;;;;;;;;17.10;73.00;;;;;;4391374;32;21612;-83
2021/06/13 06:48:46;;;;;;;;;;;17.20;73.20;;;;;;4393207;32;20051;-84
2021/06/13 06:51:13;;;;;;;;;;;17.20;73.30;;;;;;4392857;32;21501;-84
2021/06/13 06:53:40;;;;;;;;;;;17.20;73.40;;;;;;4392172;32;20008;-82
2021/06/13 06:56:07;;;;;;;;;;;17.20;73.40;;;;;;4379079;32;23595;-84
2021/06/13 06:58:34;;;;;;;;;;;17.20;73.40;;;;;;4392818;32;20001;-85
2021/06/13 07:01:02;;;;;;;;;;;17.20;73.40;;;;;;4379079;32;20435;-83
2021/06/13 07:03:30;;;;;;;;;;;17.20;73.40;;;;;;4393451;32;20124;-84
2021/06/13 07:05:57;;;;;;;;;;;17.30;73.50;;;;;;4394223;32;20016;-85
2021/06/13 07:08:24;;;;;;;;;;;17.30;73.60;;;;;;4379424;32;19996;-83
2021/06/13 07:10:51;;;;;;;;;;;17.20;73.50;;;;;;4391730;32;20068;-85
2021/06/13 07:13:18;;;;;;;;;;;17.30;73.60;;;;;;4391064;32;42710;-85
2021/06/13 07:15:45;;;;;;;;;;;17.30;73.70;;;;;;4391072;32;43392;-85
2021/06/13 07:18:13;;;;;;;;;;;17.30;73.70;;;;;;4390206;32;42680;-85
2021/06/13 07:20:40;;;;;;;;;;;17.30;73.70;;;;;;4390313;32;44647;-84
2021/06/13 07:23:08;;;;;;;;;;;17.30;73.70;;;;;;4392535;32;20406;-85
2021/06/13 07:25:35;;;;;;;;;;;17.30;73.70;;;;;;4390999;32;41125;-85
2021/06/13 07:28:04;;;;;;;;;;;17.30;73.80;;;;;;4390990;32;42567;-84
2021/06/13 07:30:34;;;;;;;;;;;17.40;73.90;;;;;;4390441;32;42583;-84
2021/06/13 07:33:02;;;;;;;;;;;17.40;73.90;;;;;;4391538;32;44121;-85
2021/06/13 07:35:30;;;;;;;;;;;17.40;73.90;;;;;;4377587;32;42848;-85
2021/06/13 07:38:00;;;;;;;;;;;17.40;73.80;;;;;;4390809;32;41730;-85
2021/06/13 07:40:27;;;;;;;;;;;17.40;73.80;;;;;;4389985;32;45109;-85
2021/06/13 07:42:55;;;;;;;;;;;17.40;73.80;;;;;;4391124;32;44772;-85
2021/06/13 07:45:23;;;;;;;;;;;17.40;73.90;;;;;;4389643;32;44486;-85
2021/06/13 07:47:51;;;;;;;;;;;17.40;73.80;;;;;;4391057;32;44020;-85
2021/06/13 07:50:19;;;;;;;;;;;17.50;73.90;;;;;;4391045;32;20025;-85
2021/06/13 07:52:46;;;;;;;;;;;17.50;73.90;;;;;;4389931;32;44417;-85
2021/06/13 07:55:15;;;;;;;;;;;17.50;73.90;;;;;;4391005;32;42425;-85
2021/06/13 07:57:43;;;;;;;;;;;17.50;73.80;;;;;;4390410;32;43520;-84
2021/06/13 08:00:11;;;;;;;;;;;17.50;73.80;;;;;;4389239;32;44960;-85
2021/06/13 08:02:46;;;;;;;;;;;17.50;73.80;;;;;;4374201;32;43463;-84
2021/06/13 08:05:17;;;;;;;;;;;17.50;73.70;;;;;;4376018;32;44476;-84
2021/06/13 08:07:44;;;;;;;;;;;17.50;73.60;;;;;;4386960;32;45080;-83
2021/06/13 08:10:11;;;;;;;;;;;17.60;73.70;;;;;;4376099;32;44574;-83
2021/06/13 08:12:38;;;;;;;;;;;17.60;73.70;;;;;;4376387;32;28913;-84
2021/06/13 08:15:06;;;;;;;;;;;17.50;74.50;;;;;;4375929;32;43982;-84
2021/06/13 08:17:33;;;;;;;;;;;17.60;73.70;;;;;;4387495;32;33058;-85
2021/06/13 08:20:00;;;;;;;;;;;17.60;73.70;;;;;;4375932;32;44347;-85
2021/06/13 08:22:28;;;;;;;;;;;17.60;73.70;;;;;;4375235;32;43131;-85
2021/06/13 08:24:56;;;;;;;;;;;17.60;73.60;;;;;;4376272;32;44697;-84
2021/06/13 08:27:24;;;;;;;;;;;17.60;73.70;;;;;;4376254;32;41178;-85
2021/06/13 08:29:51;;;;;;;;;;;17.60;73.70;;;;;;4386970;32;43791;-85
2021/06/13 08:32:18;;;;;;;;;;;17.70;73.60;;;;;;4375293;32;43870;-85
2021/06/13 08:34:45;;;;;;;;;;;17.60;73.40;;;;;;4374923;32;43513;-85
2021/06/13 08:37:12;;;;;;;;;;;17.70;73.50;;;;;;4386387;32;39713;-85
2021/06/13 08:39:39;;;;;;;;;;;17.60;73.30;;;;;;4386524;32;44450;-84
2021/06/13 08:42:06;;;;;;;;;;;17.60;73.40;;;;;;4386669;32;41492;-85
2021/06/13 08:44:34;;;;;;;;;;;17.70;73.60;;;;;;4374115;32;40526;-84
2021/06/13 08:47:02;;;;;;;;;;;17.70;73.60;;;;;;4375136;32;45129;-85
2021/06/13 08:49:31;;;;;;;;;;;17.70;73.60;;;;;;4375248;32;44928;-84
2021/06/13 08:51:58;;;;;;;;;;;17.70;73.60;;;;;;4375024;32;37101;-85
2021/06/13 08:54:25;;;;;;;;;;;17.70;73.40;;;;;;4375659;32;26120;-85
2021/06/13 08:56:52;;;;;;;;;;;17.70;73.40;;;;;;4387656;32;20082;-85
2021/06/13 08:59:19;;;;;;;;;;;17.70;73.40;;;;;;4375408;32;20056;-84
2021/06/13 09:01:47;;;;;;;;;;;17.70;73.40;;;;;;4378149;32;20369;-84
2021/06/13 09:04:14;;;;;;;;;;;17.70;73.50;;;;;;4390906;32;21083;-84
2021/06/13 09:06:41;;;;;;;;;;;17.70;73.40;;;;;;4390441;32;22346;-84
2021/06/13 09:09:21;;;;;;;;;;;17.70;73.40;;;;;;4390309;32;21936;-85
2021/06/13 09:11:58;;;;;;;;;;;17.70;73.70;;;;;;4391144;32;20015;-84
2021/06/13 09:14:26;;;;;;;;;;;17.70;73.40;;;;;;4390565;32;25117;-84
2021/06/13 09:16:55;;;;;;;;;;;17.80;73.50;;;;;;4391077;32;20016;-84
2021/06/13 09:19:22;;;;;;;;;;;17.80;73.40;;;;;;4390165;32;20081;-84
2021/06/13 09:21:50;;;;;;;;;;;17.80;74.20;;;;;;4388753;32;39055;-83
2021/06/13 09:24:18;;;;;;;;;;;17.80;73.40;;;;;;4390049;32;35599;-84
2021/06/13 09:26:45;;;;;;;;;;;17.80;73.40;;;;;;4389498;32;44366;-84
2021/06/13 09:29:12;;;;;;;;;;;17.80;73.40;;;;;;4389024;32;38570;-84
2021/06/13 09:31:39;;;;;;;;;;;17.80;73.40;;;;;;4389908;32;44929;-83
2021/06/13 09:34:13;;;;;;;;;;;17.80;73.30;;;;;;4388606;32;43141;-83
2021/06/13 09:36:40;;;;;;;;;;;17.90;73.30;;;;;;4389733;32;43846;-84
2021/06/13 09:39:09;;;;;;;;;;;17.90;73.30;;;;;;4391836;32;20014;-83
2021/06/13 09:41:37;;;;;;;;;;;17.90;73.30;;;;;;4378836;32;40833;-83
2021/06/13 09:44:05;;;;;;;;;;;17.90;73.30;;;;;;4391777;32;39372;-83
2021/06/13 09:46:33;;;;;;;;;;;17.90;73.30;;;;;;4391268;32;44596;-82
2021/06/13 09:49:05;;;;;;;;;;;17.90;73.20;;;;;;4392445;32;43630;-83
2021/06/13 09:51:34;;;;;;;;;;;17.90;73.20;;;;;;4392738;32;43368;-83
2021/06/13 09:54:02;;;;;;;;;;;17.90;73.10;;;;;;4392397;32;43645;-83
2021/06/13 09:56:36;;;;;;;;;;;17.90;73.10;;;;;;4391736;32;38885;-83
2021/06/13 09:59:05;;;;;;;;;;;17.90;73.00;;;;;;4392685;32;33862;-83
2021/06/13 10:01:32;;;;;;;;;;;18.00;73.00;;;;;;4392341;32;44048;-83
2021/06/13 10:04:00;;;;;;;;;;;18.00;73.90;;;;;;4391743;32;20605;-83
2021/06/13 10:06:29;;;;;;;;;;;18.00;73.10;;;;;;4379613;32;20004;-83
2021/06/13 10:08:57;;;;;;;;;;;18.00;73.00;;;;;;4392468;32;20008;-83
2021/06/13 10:11:24;;;;;;;;;;;18.00;72.90;;;;;;4392868;32;20197;-83
2021/06/13 10:13:56;;;;;;;;;;;18.00;72.90;;;;;;4392522;32;24351;-83
2021/06/13 10:16:23;;;;;;;;;;;18.00;72.90;;;;;;4393343;32;20067;-82
2021/06/13 10:18:51;;;;;;;;;;;18.00;72.90;;;;;;4392382;32;20074;-82
2021/06/13 10:21:18;;;;;;;;;;;18.10;73.00;;;;;;4392925;32;21459;-82
2021/06/13 10:23:46;;;;;;;;;;;18.10;73.00;;;;;;4392886;32;21416;-81
2021/06/13 10:26:13;;;;;;;;;;;18.10;73.00;;;;;;4392875;32;20133;-82
2021/06/13 10:28:40;;;;;;;;;;;18.10;72.90;;;;;;4391397;32;20024;-82
2021/06/13 10:31:07;;;;;;;;;;;18.10;72.80;;;;;;4393254;32;20018;-81
2021/06/13 10:33:35;;;;;;;;;;;18.10;72.80;;;;;;4392735;32;20014;-82
2021/06/13 10:36:02;;;;;;;;;;;18.20;72.90;;;;;;4392838;32;20020;-81
2021/06/13 10:38:29;;;;;;;;;;;18.20;72.90;;;;;;4378472;32;25814;-82
2021/06/13 10:40:57;;;;;;;;;;;18.20;72.70;;;;;;4392377;32;23591;-81
2021/06/13 10:43:26;;;;;;;;;;;18.20;72.70;;;;;;4379300;32;20000;-81
2021/06/13 10:46:02;;;;;;;;;;;18.20;72.70;;;;;;4392658;32;20109;-81
2021/06/13 10:48:43;;;;;;;;;;;18.20;72.70;;;;;;4392514;32;20436;-82
2021/06/13 10:51:27;;;;;;;;;;;18.30;72.70;;;;;;4392935;32;20061;-82
2021/06/13 10:54:14;;;;;;;;;;;18.30;72.60;;;;;;4391372;32;25902;-82
2021/06/13 10:56:41;;;;;;;;;;;18.30;72.60;;;;;;4393045;32;20000;-81
2021/06/13 10:59:13;;;;;;;;;;;18.30;72.50;;;;;;4392556;32;20046;-81
2021/06/13 11:02:03;;;;;;;;;;;18.30;72.50;;;;;;4391680;32;20057;-82
2021/06/13 11:05:01;;;;;;;;;;;18.40;72.40;;;;;;4391644;32;20023;-82
2021/06/13 11:07:39;;;;;;;;;;;18.40;72.30;;;;;;4380958;32;43619;-82
2021/06/13 11:12:47;;;;;;;;;;;18.40;72.20;;;;;;4377769;32;44108;-83
2021/06/13 11:15:18;;;;;;;;;;;18.50;72.30;;;;;;4378198;32;41710;-82
2021/06/13 11:17:59;;;;;;;;;;;18.50;72.10;;;;;;4391464;32;43372;-83
2021/06/13 11:20:51;;;;;;;;;;;18.50;72.10;;;;;;4391203;32;43761;-80
2021/06/13 11:23:22;;;;;;;;;;;18.50;72.00;;;;;;4377242;32;38827;-80
2021/06/13 11:25:53;;;;;;;;;;;18.60;72.20;;;;;;4389767;32;44453;-81
2021/06/13 11:28:27;;;;;;;;;;;18.60;72.20;;;;;;4377192;32;45078;-82
2021/06/13 11:30:56;;;;;;;;;;;18.60;72.20;;;;;;4392390;32;20022;-82
2021/06/13 11:33:38;;;;;;;;;;;18.60;72.10;;;;;;4390566;32;20112;-83
2021/06/13 11:36:18;;;;;;;;;;;18.60;72.10;;;;;;4390979;32;44156;-81
2021/06/13 11:38:52;;;;;;;;;;;18.70;72.20;;;;;;4391310;32;41314;-81
2021/06/13 11:41:29;;;;;;;;;;;18.70;72.10;;;;;;4390323;32;35526;-83
2021/06/13 11:43:57;;;;;;;;;;;18.70;72.00;;;;;;4390280;32;35914;-83
2021/06/13 11:46:31;;;;;;;;;;;18.80;72.00;;;;;;4377259;32;43230;-83
2021/06/13 11:48:59;;;;;;;;;;;18.80;71.90;;;;;;4391061;32;20019;-82
2021/06/13 11:51:26;;;;;;;;;;;18.80;71.90;;;;;;4390725;32;43750;-82
2021/06/13 11:54:01;;;;;;;;;;;18.80;71.90;;;;;;4377251;32;43399;-83
2021/06/13 11:56:31;;;;;;;;;;;18.80;71.80;;;;;;4389579;32;42112;-83
2021/06/13 11:59:05;;;;;;;;;;;18.90;71.80;;;;;;4390976;32;43241;-83
2021/06/13 12:01:34;;;;;;;;;;;18.90;71.80;;;;;;4377184;32;20344;-83
2021/06/13 12:04:02;;;;;;;;;;;18.90;71.70;;;;;;4391410;32;20314;-84
2021/06/13 12:06:29;;;;;;;;;;;18.90;71.70;;;;;;4390622;32;20016;-83
2021/06/13 12:08:57;;;;;;;;;;;18.90;71.70;;;;;;4377387;32;20034;-83
2021/06/13 12:11:31;;;;;;;;;;;19.00;71.60;;;;;;4377356;32;20529;-83
2021/06/13 12:14:15;;;;;;;;;;;19.00;71.60;;;;;;4377555;32;20238;-84
2021/06/13 12:16:43;;;;;;;;;;;19.10;71.60;;;;;;4391384;32;20005;-84
2021/06/13 12:19:12;;;;;;;;;;;19.10;71.60;;;;;;4391030;32;20361;-84
2021/06/13 12:21:40;;;;;;;;;;;19.10;71.50;;;;;;4391324;32;20016;-83
2021/06/13 12:24:11;;;;;;;;;;;19.10;71.60;;;;;;4389699;32;20526;-85
2021/06/13 12:29:25;;;;;;;;;;;19.20;71.60;;;;;;4391112;32;23212;-84
2021/06/13 12:31:55;;;;;;;;;;;19.20;71.50;;;;;;4390723;32;20073;-84
2021/06/13 12:34:23;;;;;;;;;;;19.30;71.40;;;;;;4390565;32;22652;-84
2021/06/13 12:36:52;;;;;;;;;;;19.30;71.40;;;;;;4377471;32;25355;-85
2021/06/13 12:39:23;;;;;;;;;;;19.30;71.40;;;;;;4390352;32;21794;-85
2021/06/13 12:41:50;;;;;;;;;;;19.30;71.40;;;;;;4391008;32;20386;-85
2021/06/13 12:44:17;;;;;;;;;;;19.40;71.50;;;;;;4391003;32;20008;-84
2021/06/13 12:46:44;;;;;;;;;;;19.40;71.40;;;;;;4377532;32;23629;-85
2021/06/13 12:49:12;;;;;;;;;;;19.40;71.30;;;;;;4391050;32;23022;-84
2021/06/13 12:51:41;;;;;;;;;;;19.50;71.30;;;;;;4376901;32;20000;-85
2021/06/13 12:54:13;;;;;;;;;;;19.50;71.30;;;;;;4391368;32;20014;-85
2021/06/13 12:56:41;;;;;;;;;;;19.50;71.30;;;;;;4390689;32;21085;-85
2021/06/13 12:59:09;;;;;;;;;;;19.60;71.30;;;;;;4377453;32;20377;-85
2021/06/13 13:01:41;;;;;;;;;;;19.60;71.20;;;;;;4377314;32;20372;-85
2021/06/13 13:04:08;;;;;;;;;;;19.60;71.20;;;;;;4390005;32;20023;-85
2021/06/13 13:06:48;;;;;;;;;;;19.70;71.90;;;;;;4389496;32;23287;-83
2021/06/13 13:09:15;;;;;;;;;;;19.70;71.10;;;;;;4390490;32;20063;-84
2021/06/13 13:11:50;;;;;;;;;;;19.70;71.10;;;;;;4391010;32;20004;-84
2021/06/13 13:14:18;;;;;;;;;;;19.70;71.10;;;;;;4394153;32;20054;-84
2021/06/13 13:16:45;;;;;;;;;;;19.80;71.10;;;;;;4394058;32;20502;-84
2021/06/13 13:19:26;;;;;;;;;;;19.80;71.10;;;;;;4394128;32;20016;-84
2021/06/13 13:21:53;;;;;;;;;;;19.90;71.10;;;;;;4379570;32;23911;-84
2021/06/13 13:24:30;;;;;;;;;;;19.90;71.00;;;;;;4393525;32;20453;-84
2021/06/13 13:27:01;;;;;;;;;;;19.90;71.10;;;;;;4380336;32;20007;-84
2021/06/13 13:29:39;;;;;;;;;;;20.00;71.10;;;;;;4393716;32;20000;-83
2021/06/13 13:32:06;;;;;;;;;;;20.00;71.10;;;;;;4393732;32;20013;-84
2021/06/13 13:34:45;;;;;;;;;;;20.10;71.10;;;;;;4393958;32;20075;-84
2021/06/13 13:37:14;;;;;;;;;;;20.10;71.10;;;;;;4379609;32;20008;-83
2021/06/13 13:39:42;;;;;;;;;;;20.10;70.90;;;;;;4379991;32;20008;-83
2021/06/13 13:42:11;;;;;;;;;;;20.20;70.80;;;;;;4393695;32;20408;-83
2021/06/13 13:44:39;;;;;;;;;;;20.20;70.80;;;;;;4393437;32;23349;-83
2021/06/13 13:47:08;;;;;;;;;;;20.20;70.80;;;;;;4379945;32;20003;-83
2021/06/13 13:49:36;;;;;;;;;;;20.30;71.60;;;;;;4391708;32;27405;-84
2021/06/13 13:52:03;;;;;;;;;;;20.30;70.80;;;;;;4393445;32;20005;-84
2021/06/13 13:54:32;;;;;;;;;;;20.30;70.70;;;;;;4392072;32;20050;-84
2021/06/13 13:57:00;;;;;;;;;;;20.40;70.80;;;;;;4393363;32;20405;-84
2021/06/13 13:59:28;;;;;;;;;;;20.40;70.80;;;;;;4391533;32;32618;-84
2021/06/13 14:01:55;;;;;;;;;;;20.40;70.80;;;;;;4391010;32;43522;-83
2021/06/13 14:04:25;;;;;;;;;;;20.50;70.80;;;;;;4393768;32;20049;-84
2021/06/13 14:06:53;;;;;;;;;;;20.50;70.70;;;;;;4393114;32;27015;-86
2021/06/13 14:09:20;;;;;;;;;;;20.50;70.60;;;;;;4392353;32;20012;-84
2021/06/13 14:11:48;;;;;;;;;;;20.60;70.60;;;;;;4391908;32;24085;-85
2021/06/13 14:14:20;;;;;;;;;;;20.60;70.50;;;;;;4392873;32;20071;-84
2021/06/13 14:16:49;;;;;;;;;;;20.60;70.50;;;;;;4380221;32;20027;-85
2021/06/13 14:19:18;;;;;;;;;;;20.60;70.40;;;;;;4379775;32;20074;-84
2021/06/13 14:21:46;;;;;;;;;;;20.70;70.50;;;;;;4393449;32;20046;-86
2021/06/13 14:24:13;;;;;;;;;;;20.70;70.40;;;;;;4378772;32;20003;-84
2021/06/13 14:26:41;;;;;;;;;;;20.70;70.40;;;;;;4378915;32;20012;-84
2021/06/13 14:29:08;;;;;;;;;;;20.70;70.30;;;;;;4393087;32;20021;-84
2021/06/13 14:31:35;;;;;;;;;;;20.80;70.40;;;;;;4392782;32;24312;-74
2021/06/13 14:34:03;;;;;;;;;;;20.80;70.30;;;;;;4379503;32;20390;-72